Terminal Aerodrome Forecast
Issued by NWS Newport/Morehead City, NC

Home | Current Version | Previous Version | Text Only | Print | Product List | Glossary On
Versions: 1 2 3 4 5 6 7 8 9 10 11 12 13 14
000
FTUS42 KMHX 250546
TAFEWN
TAF
KEWN 250546Z 2506/2606 00000KT P6SM SCT008 BKN015
     FM250800 04005KT P6SM BKN008 BKN015
     FM251400 05007KT P6SM BKN020
     FM251800 04007KT P6SM BKN035=

USA.gov is the U.S. government's official web portal to all federal, state and local government web resources and services.